Terminal Aerodrome Forecast
Issued by NWS Sterling, VA

Home | Current Version | Previous Version | Text Only | Print | Product List | Glossary On
Versions: 1 2 3 4 5 6 7 8 9 10 11 12 13 14 15
896
FTUS41 KLWX 162054 AAA
TAFMRB
TAF AMD
KMRB 162054Z 1621/1718 14004KT P6SM OVC060
     FM162300 VRB03KT P6SM OVC030
     FM170100 VRB03KT 5SM BR OVC015
     FM170600 00000KT 2SM BR OVC010
     FM170900 00000KT 1 1/2SM BR OVC008
     FM171200 00000KT 1 1/2SM -RA BR OVC008
     FM171500 VRB03KT 2SM -RA BR OVC010=

USA.gov is the U.S. government's official web portal to all federal, state and local government web resources and services.